createdAt,value
2018-12-26T00:00:15.729Z,950.58
2018-12-26T00:01:16.952Z,950.54
2018-12-26T00:02:18.249Z,950.53
2018-12-26T00:03:19.220Z,950.59
2018-12-26T00:04:19.906Z,950.56
2018-12-26T00:05:20.314Z,950.56
2018-12-26T00:06:20.602Z,950.48
2018-12-26T00:07:21.287Z,950.54
2018-12-26T00:08:22.125Z,950.49
2018-12-26T00:09:23.257Z,950.45
2018-12-26T00:10:23.772Z,950.48
2018-12-26T00:11:24.803Z,950.46
2018-12-26T00:12:25.209Z,950.47
2018-12-26T00:13:26.337Z,950.47
2018-12-26T00:14:27.080Z,950.45
2018-12-26T00:15:27.321Z,950.41
2018-12-26T00:16:28.307Z,950.45
2018-12-26T00:17:29.555Z,950.46
2018-12-26T00:18:30.689Z,950.5
2018-12-26T00:19:31.477Z,950.47
2018-12-26T00:20:32.383Z,950.48
2018-12-26T00:21:33.350Z,950.5
2018-12-26T00:22:33.760Z,950.45
2018-12-26T00:23:34.167Z,950.49
2018-12-26T00:24:34.905Z,950.46
2018-12-26T00:25:36.035Z,950.49
2018-12-26T00:26:37.060Z,950.5
2018-12-26T00:27:37.304Z,950.51
2018-12-26T00:28:37.563Z,950.57
2018-12-26T00:29:37.970Z,950.55
2018-12-26T00:30:39.103Z,950.6
2018-12-26T00:31:40.245Z,950.6
2018-12-26T00:32:40.931Z,950.62
2018-12-26T00:33:41.618Z,950.64
2018-12-26T00:34:42.305Z,950.59
2018-12-26T00:35:42.526Z,950.62
2018-12-26T00:36:43.209Z,950.69
2018-12-26T00:37:44.173Z,950.68
2018-12-26T00:38:44.986Z,950.73
2018-12-26T00:39:47.953Z,950.75
2018-12-26T00:40:46.507Z,950.79
2018-12-26T00:41:47.924Z,950.81
2018-12-26T00:42:48.667Z,950.82
2018-12-26T00:43:49.352Z,950.81
2018-12-26T00:44:50.037Z,950.82
2018-12-26T00:45:50.445Z,950.84
2018-12-26T00:46:51.128Z,950.83
2018-12-26T00:47:51.538Z,950.8
2018-12-26T00:48:52.537Z,950.84
2018-12-26T00:49:53.704Z,950.8
2018-12-26T00:50:54.162Z,950.81
2018-12-26T00:51:55.404Z,950.83
2018-12-26T00:52:56.540Z,950.84
2018-12-26T00:53:57.670Z,950.87
2018-12-26T00:54:58.357Z,950.89
2018-12-26T00:55:59.321Z,950.85
2018-12-26T00:56:59.733Z,950.89
2018-12-26T00:58:00.417Z,950.89
2018-12-26T00:59:00.809Z,950.87
2018-12-26T01:00:01.497Z,950.88
2018-12-26T01:01:01.901Z,950.86
2018-12-26T01:02:03.030Z,950.88
2018-12-26T01:03:04.161Z,950.86
2018-12-26T01:04:04.852Z,950.85
2018-12-26T01:05:05.253Z,950.85
2018-12-26T01:06:05.939Z,950.86
2018-12-26T01:07:06.351Z,950.9
2018-12-26T01:08:06.758Z,950.89
2018-12-26T01:09:07.022Z,950.9
2018-12-26T01:10:07.517Z,950.89
2018-12-26T01:11:08.239Z,950.88
2018-12-26T01:12:08.645Z,950.87
2018-12-26T01:13:09.774Z,950.87
2018-12-26T01:14:10.182Z,950.84
2018-12-26T01:15:11.422Z,950.88
2018-12-26T01:16:11.831Z,950.89
2018-12-26T01:17:12.959Z,950.83
2018-12-26T01:18:13.368Z,950.85
2018-12-26T01:19:13.622Z,950.87
2018-12-26T01:20:15.035Z,950.91
2018-12-26T01:21:15.999Z,950.85
2018-12-26T01:22:16.777Z,950.87
2018-12-26T01:23:17.473Z,950.85
2018-12-26T01:24:18.597Z,950.91
2018-12-26T01:25:19.285Z,950.9
2018-12-26T01:26:20.244Z,950.89
2018-12-26T01:27:21.368Z,950.91
2018-12-26T01:28:22.335Z,950.91
2018-12-26T01:29:23.437Z,950.88
2018-12-26T01:30:23.697Z,950.88
2018-12-26T01:31:24.378Z,950.87
2018-12-26T01:32:25.505Z,950.84
2018-12-26T01:33:26.459Z,950.84
2018-12-26T01:34:27.894Z,950.79
2018-12-26T01:35:28.296Z,950.76
2018-12-26T01:36:28.702Z,950.75
2018-12-26T01:37:29.825Z,950.72
2018-12-26T01:38:30.783Z,950.69
2018-12-26T01:39:31.866Z,950.68
2018-12-26T01:40:32.824Z,950.67
2018-12-26T01:41:33.230Z,950.6
2018-12-26T01:42:33.634Z,950.61
2018-12-26T01:43:34.037Z,950.6
2018-12-26T01:44:35.165Z,950.58
2018-12-26T01:45:35.845Z,950.55
2018-12-26T01:46:36.250Z,950.56
2018-12-26T01:47:37.378Z,950.58
2018-12-26T01:48:37.780Z,950.53
2018-12-26T01:49:38.703Z,950.5
2018-12-26T01:50:39.829Z,950.5
2018-12-26T01:51:41.232Z,950.52
2018-12-26T01:52:41.637Z,950.49
2018-12-26T01:53:41.863Z,950.48
2018-12-26T01:54:42.384Z,950.48
2018-12-26T01:55:43.349Z,950.45
2018-12-26T01:56:43.778Z,950.46
2018-12-26T01:57:45.183Z,950.46
2018-12-26T01:58:46.146Z,950.44
2018-12-26T01:59:46.952Z,950.45
2018-12-26T02:00:47.356Z,950.38
2018-12-26T02:01:48.340Z,950.38
2018-12-26T02:02:49.026Z,950.39
2018-12-26T02:03:49.430Z,950.37
2018-12-26T02:04:49.868Z,950.34
2018-12-26T02:05:50.996Z,950.34
2018-12-26T02:06:51.679Z,950.3
2018-12-26T02:07:53.096Z,950.28
2018-12-26T02:08:54.225Z,950.26
2018-12-26T02:09:55.329Z,950.32
2018-12-26T02:10:55.733Z,950.2
2018-12-26T02:11:56.246Z,950.21
2018-12-26T02:12:56.652Z,950.2
2018-12-26T02:13:57.056Z,950.06
2018-12-26T02:14:58.017Z,950.07
2018-12-26T02:15:58.420Z,950.09
2018-12-26T02:16:58.936Z,949.97
2018-12-26T02:17:59.618Z,949.97
2018-12-26T02:19:00.745Z,949.95
2018-12-26T02:20:02.145Z,950
2018-12-26T02:21:03.105Z,949.96
2018-12-26T02:22:03.508Z,949.94
2018-12-26T02:23:04.243Z,949.9
2018-12-26T02:24:04.928Z,949.93
2018-12-26T02:25:05.610Z,949.91
2018-12-26T02:26:06.412Z,949.92
2018-12-26T02:27:06.822Z,949.88
2018-12-26T02:28:07.787Z,949.84
2018-12-26T02:29:08.473Z,949.95
2018-12-26T02:30:09.555Z,949.81
2018-12-26T02:31:10.372Z,949.82
2018-12-26T02:32:11.630Z,949.73
2018-12-26T02:33:11.866Z,949.76
2018-12-26T02:34:12.564Z,949.7
2018-12-26T02:35:13.254Z,949.71
2018-12-26T02:36:14.048Z,949.62
2018-12-26T02:37:14.736Z,949.68
2018-12-26T02:38:15.147Z,949.69
2018-12-26T02:39:15.390Z,949.61
2018-12-26T02:40:16.054Z,949.62
2018-12-26T02:41:16.457Z,949.56
2018-12-26T02:42:17.239Z,949.53
2018-12-26T02:43:18.200Z,949.56
2018-12-26T02:44:18.882Z,949.53
2018-12-26T02:45:19.129Z,949.46
2018-12-26T02:46:19.648Z,949.42
2018-12-26T02:47:20.057Z,949.35
2018-12-26T02:48:20.741Z,949.38
2018-12-26T02:49:20.988Z,949.32
2018-12-26T02:50:21.527Z,949.28
2018-12-26T02:51:22.057Z,949.26
2018-12-26T02:52:23.020Z,949.22
2018-12-26T02:53:23.517Z,949.29
2018-12-26T02:54:24.041Z,949.23
2018-12-26T02:55:25.011Z,949.32
2018-12-26T02:56:25.974Z,949.31
2018-12-26T02:57:26.682Z,949.28
2018-12-26T02:58:27.371Z,949.29
2018-12-26T02:59:27.774Z,949.33
2018-12-26T03:00:28.169Z,949.37
2018-12-26T03:01:28.458Z,949.31
2018-12-26T03:02:28.999Z,949.36
2018-12-26T03:03:29.959Z,949.34
2018-12-26T03:04:31.447Z,949.36
2018-12-26T03:05:31.681Z,949.37
2018-12-26T03:06:32.826Z,949.4
2018-12-26T03:07:33.953Z,949.41
2018-12-26T03:08:34.336Z,949.42
2018-12-26T03:09:34.591Z,949.38
2018-12-26T03:10:35.703Z,949.36
2018-12-26T03:11:36.214Z,949.44
2018-12-26T03:12:37.222Z,949.45
2018-12-26T03:13:37.746Z,949.44
2018-12-26T03:14:38.555Z,949.47
2018-12-26T03:15:38.961Z,949.47
2018-12-26T03:16:39.389Z,949.5
2018-12-26T03:17:39.940Z,949.51
2018-12-26T03:18:40.356Z,949.51
2018-12-26T03:19:41.329Z,949.53
2018-12-26T03:20:42.091Z,949.5
2018-12-26T03:21:42.776Z,949.53
2018-12-26T03:22:43.289Z,949.58
2018-12-26T03:23:43.977Z,949.56
2018-12-26T03:24:45.212Z,949.58
2018-12-26T03:25:46.174Z,949.65
2018-12-26T03:26:58.964Z,949.69
2018-12-26T03:27:59.920Z,949.7
2018-12-26T03:29:01.159Z,949.8
2018-12-26T03:30:02.008Z,949.8
2018-12-26T03:31:02.552Z,949.79
2018-12-26T03:32:03.548Z,949.79
2018-12-26T03:33:04.643Z,949.76
2018-12-26T03:34:04.929Z,949.76
2018-12-26T03:35:05.330Z,949.8
2018-12-26T03:36:06.085Z,949.74
2018-12-26T03:37:06.779Z,949.72
2018-12-26T03:38:07.726Z,949.78
2018-12-26T03:39:08.237Z,949.78
2018-12-26T03:40:08.917Z,949.72
2018-12-26T03:41:09.600Z,949.71
2018-12-26T03:42:10.438Z,949.72
2018-12-26T03:43:11.134Z,949.72
2018-12-26T03:44:11.395Z,949.69
2018-12-26T03:45:12.085Z,949.74
2018-12-26T03:46:13.150Z,949.77
2018-12-26T03:47:14.296Z,949.66
2018-12-26T03:48:15.144Z,949.73
2018-12-26T03:49:16.127Z,949.65
2018-12-26T03:50:16.371Z,949.69
2018-12-26T03:51:17.056Z,949.77
2018-12-26T03:52:17.572Z,949.71
2018-12-26T03:53:17.812Z,949.73
2018-12-26T03:54:18.771Z,949.69
2018-12-26T03:55:19.458Z,949.73
2018-12-26T03:56:20.431Z,949.72
2018-12-26T03:57:21.111Z,949.63
2018-12-26T03:58:21.768Z,949.68
2018-12-26T03:59:22.569Z,949.68
2018-12-26T04:00:23.810Z,949.65
2018-12-26T04:01:24.057Z,949.7
2018-12-26T04:02:25.293Z,949.7
2018-12-26T04:03:26.254Z,949.67
2018-12-26T04:04:26.774Z,949.65
2018-12-26T04:05:27.455Z,949.71
2018-12-26T04:06:27.909Z,949.7
2018-12-26T04:07:28.461Z,949.72
2018-12-26T04:08:28.854Z,949.71
2018-12-26T04:09:29.093Z,949.7
2018-12-26T04:10:29.620Z,949.72
2018-12-26T04:11:30.577Z,949.75
2018-12-26T04:12:31.278Z,949.76
2018-12-26T04:13:32.138Z,949.76
2018-12-26T04:14:32.388Z,949.69
2018-12-26T04:15:32.909Z,949.74
2018-12-26T04:16:33.870Z,949.67
2018-12-26T04:17:34.843Z,949.62
2018-12-26T04:18:35.955Z,949.63
2018-12-26T04:19:36.921Z,949.63
2018-12-26T04:20:37.879Z,949.56
2018-12-26T04:21:38.352Z,949.64
2018-12-26T04:22:39.486Z,949.54
2018-12-26T04:23:40.002Z,949.57
2018-12-26T04:24:40.684Z,949.59
2018-12-26T04:25:41.418Z,949.54
2018-12-26T04:26:42.389Z,949.57
2018-12-26T04:27:42.806Z,949.54
2018-12-26T04:28:43.623Z,949.53
2018-12-26T04:29:44.858Z,949.52
2018-12-26T04:30:45.278Z,949.48
2018-12-26T04:31:45.545Z,949.46
2018-12-26T04:32:46.511Z,949.46
2018-12-26T04:33:47.321Z,949.47
2018-12-26T04:34:47.733Z,949.43
2018-12-26T04:35:48.425Z,949.39
2018-12-26T04:36:49.469Z,949.38
2018-12-26T04:37:50.433Z,949.36
2018-12-26T04:38:51.259Z,949.35
2018-12-26T04:39:52.222Z,949.4
2018-12-26T04:40:52.904Z,949.39
2018-12-26T04:41:53.305Z,949.37
2018-12-26T04:42:54.269Z,949.33
2018-12-26T04:43:55.598Z,949.35
2018-12-26T04:44:56.004Z,949.36
2018-12-26T04:45:56.704Z,949.36
2018-12-26T04:46:57.953Z,949.28
2018-12-26T04:47:59.250Z,949.33
2018-12-26T04:49:00.471Z,949.35
2018-12-26T04:50:01.174Z,949.35
2018-12-26T04:51:01.861Z,949.37
2018-12-26T04:52:02.656Z,949.32
2018-12-26T04:53:03.172Z,949.35
2018-12-26T04:54:04.153Z,949.34
2018-12-26T04:55:05.111Z,949.35
2018-12-26T04:56:06.084Z,949.35
2018-12-26T04:57:06.563Z,949.38
2018-12-26T04:58:07.530Z,949.3
2018-12-26T04:59:08.184Z,949.31
2018-12-26T05:00:08.449Z,949.28
2018-12-26T05:01:09.413Z,949.23
2018-12-26T05:02:10.104Z,949.3
2018-12-26T05:03:10.507Z,949.28
2018-12-26T05:04:11.225Z,949.24
2018-12-26T05:05:12.190Z,949.22
2018-12-26T05:06:13.160Z,949.25
2018-12-26T05:07:14.119Z,949.25
2018-12-26T05:08:14.523Z,949.26
2018-12-26T05:09:15.612Z,949.28
2018-12-26T05:10:16.294Z,949.23
2018-12-26T05:11:17.272Z,949.21
2018-12-26T05:12:17.493Z,949.23
2018-12-26T05:13:17.901Z,949.22
2018-12-26T05:14:18.303Z,949.24
2018-12-26T05:15:19.341Z,949.23
2018-12-26T05:16:20.493Z,949.17
2018-12-26T05:17:21.173Z,949.27
2018-12-26T05:18:21.579Z,949.24
2018-12-26T05:19:22.539Z,949.19
2018-12-26T05:20:23.504Z,949.19
2018-12-26T05:21:24.192Z,949.16
2018-12-26T05:22:25.155Z,949.21
2018-12-26T05:23:26.288Z,949.25
2018-12-26T05:24:27.524Z,949.23
2018-12-26T05:25:28.210Z,949.21
2018-12-26T05:26:29.211Z,949.22
2018-12-26T05:27:34.903Z,949.17
2018-12-26T05:28:35.589Z,949.29
2018-12-26T05:29:36.094Z,949.25
2018-12-26T05:30:36.879Z,949.25
2018-12-26T05:31:37.838Z,949.3
2018-12-26T05:32:38.518Z,949.32
2018-12-26T05:33:39.208Z,949.3
2018-12-26T05:34:40.630Z,949.31
2018-12-26T05:35:42.141Z,949.29
2018-12-26T05:36:42.544Z,949.26
2018-12-26T05:37:43.505Z,949.26
2018-12-26T05:38:44.633Z,949.19
2018-12-26T05:39:45.717Z,949.3
2018-12-26T05:40:46.405Z,949.37
2018-12-26T05:41:46.815Z,949.29
2018-12-26T05:42:47.494Z,949.23
2018-12-26T05:43:47.982Z,949.29
2018-12-26T05:44:48.940Z,949.23
2018-12-26T05:45:50.344Z,949.23
2018-12-26T05:46:51.310Z,949.25
2018-12-26T05:47:51.711Z,949.21
2018-12-26T05:48:52.117Z,949.29
2018-12-26T05:49:52.656Z,949.21
2018-12-26T05:50:53.721Z,949.25
2018-12-26T05:51:54.679Z,949.22
2018-12-26T05:52:55.804Z,949.25
2018-12-26T05:53:56.762Z,949.28
2018-12-26T05:54:57.722Z,949.3
2018-12-26T05:55:58.407Z,949.26
2018-12-26T05:56:59.084Z,949.25
2018-12-26T05:57:59.486Z,949.27
2018-12-26T05:59:00.165Z,949.25
2018-12-26T06:00:00.993Z,949.31
2018-12-26T06:01:01.676Z,949.34
2018-12-26T06:02:02.357Z,949.41
2018-12-26T06:03:02.861Z,949.43
2018-12-26T06:04:03.988Z,949.43
2018-12-26T06:05:04.958Z,949.43
2018-12-26T06:06:05.358Z,949.35
2018-12-26T06:07:05.767Z,949.38
2018-12-26T06:08:06.447Z,949.39
2018-12-26T06:09:06.851Z,949.39
2018-12-26T06:10:07.966Z,949.39
2018-12-26T06:11:08.376Z,949.33
2018-12-26T06:12:08.616Z,949.33
2018-12-26T06:13:09.318Z,949.32
2018-12-26T06:14:10.311Z,949.32
2018-12-26T06:15:11.433Z,949.24
2018-12-26T06:16:12.389Z,949.25
2018-12-26T06:17:13.629Z,949.22
2018-12-26T06:18:14.587Z,949.23
2018-12-26T06:19:15.270Z,949.18
2018-12-26T06:20:16.405Z,949.16
2018-12-26T06:21:16.909Z,949.1
2018-12-26T06:22:17.322Z,949.13
2018-12-26T06:23:17.925Z,949.11
2018-12-26T06:24:18.160Z,949.03
2018-12-26T06:25:18.847Z,949.07
2018-12-26T06:26:19.263Z,949.02
2018-12-26T06:27:20.365Z,949.1
2018-12-26T06:28:21.500Z,949.04
2018-12-26T06:29:22.458Z,949.06
2018-12-26T06:30:23.015Z,949.05
2018-12-26T06:31:23.698Z,949.09
2018-12-26T06:32:24.458Z,949.01
2018-12-26T06:33:25.419Z,949
2018-12-26T06:34:25.822Z,948.97
2018-12-26T06:35:26.500Z,948.92
2018-12-26T06:36:26.951Z,948.94
2018-12-26T06:37:28.085Z,948.99
2018-12-26T06:38:28.584Z,948.86
2018-12-26T06:39:29.262Z,948.92
2018-12-26T06:40:30.095Z,948.86
2018-12-26T06:41:31.053Z,948.88
2018-12-26T06:42:32.014Z,948.84
2018-12-26T06:43:32.213Z,948.91
2018-12-26T06:44:33.340Z,948.91
2018-12-26T06:45:34.470Z,948.94
2018-12-26T06:46:35.595Z,948.94
2018-12-26T06:47:36.000Z,948.94
2018-12-26T06:48:36.409Z,948.93
2018-12-26T06:49:37.369Z,948.91
2018-12-26T06:50:38.206Z,948.98
2018-12-26T06:51:39.217Z,948.97
2018-12-26T06:52:40.177Z,948.94
2018-12-26T06:53:40.672Z,948.96
2018-12-26T06:54:41.135Z,948.99
2018-12-26T06:55:42.263Z,948.99
2018-12-26T06:56:42.781Z,949
2018-12-26T06:57:43.910Z,949.05
2018-12-26T06:58:44.600Z,949.11
2018-12-26T06:59:45.284Z,949.18
2018-12-26T07:00:46.685Z,949.16
2018-12-26T07:01:47.091Z,949.17
2018-12-26T07:02:47.778Z,949.2
2018-12-26T07:03:48.740Z,949.24
2018-12-26T07:04:49.076Z,949.19
2018-12-26T07:05:49.480Z,949.19
2018-12-26T07:06:49.886Z,949.15
2018-12-26T07:07:51.014Z,949.19
2018-12-26T07:08:51.976Z,949.18
2018-12-26T07:09:52.381Z,949.19
2018-12-26T07:10:52.637Z,949.28
2018-12-26T07:11:53.768Z,949.3
2018-12-26T07:12:54.547Z,949.35
2018-12-26T07:13:54.957Z,949.34
2018-12-26T07:14:55.363Z,949.4
2018-12-26T07:15:56.491Z,949.39
2018-12-26T07:16:57.456Z,949.37
2018-12-26T07:17:58.522Z,949.41
2018-12-26T07:18:59.652Z,949.44
2018-12-26T07:20:00.779Z,949.4
2018-12-26T07:21:01.313Z,949.43
2018-12-26T07:22:01.798Z,949.46
2018-12-26T07:23:03.057Z,949.48
2018-12-26T07:24:03.795Z,949.48
2018-12-26T07:25:04.927Z,949.42
2018-12-26T07:26:05.887Z,949.46
2018-12-26T07:27:06.574Z,949.48
2018-12-26T07:28:09.975Z,949.5
2018-12-26T07:29:11.213Z,949.51
2018-12-26T07:30:11.616Z,949.49
2018-12-26T07:31:12.445Z,949.49
2018-12-26T07:32:13.132Z,949.49
2018-12-26T07:33:13.815Z,949.46
2018-12-26T07:34:14.499Z,949.41
2018-12-26T07:35:15.629Z,949.5
2018-12-26T07:36:16.324Z,949.46
2018-12-26T07:37:17.111Z,949.45
2018-12-26T07:38:18.242Z,949.47
2018-12-26T07:39:19.212Z,949.5
2018-12-26T07:40:19.626Z,949.56
2018-12-26T07:41:21.003Z,949.55
2018-12-26T07:42:21.506Z,949.54
2018-12-26T07:43:22.192Z,949.53
2018-12-26T07:44:23.158Z,949.5
2018-12-26T07:45:24.499Z,949.5
2018-12-26T07:46:25.186Z,949.49
2018-12-26T07:47:25.598Z,949.52
2018-12-26T07:48:26.288Z,949.48
2018-12-26T07:49:27.219Z,949.53
2018-12-26T07:50:27.626Z,949.54
2018-12-26T07:51:28.540Z,949.62
2018-12-26T07:52:29.949Z,949.6
2018-12-26T07:53:31.087Z,949.69
2018-12-26T07:54:31.497Z,949.72
2018-12-26T07:55:32.464Z,949.8
2018-12-26T07:56:33.595Z,949.76
2018-12-26T07:57:34.562Z,949.8
2018-12-26T07:58:35.015Z,949.81
2018-12-26T07:59:38.460Z,949.92
2018-12-26T08:00:39.591Z,949.83
2018-12-26T08:01:40.430Z,949.78
2018-12-26T08:02:41.494Z,949.87
2018-12-26T08:03:41.908Z,949.77
2018-12-26T08:04:42.871Z,949.75
2018-12-26T08:05:43.561Z,949.8
2018-12-26T08:06:44.251Z,949.81
2018-12-26T08:07:44.663Z,949.78
2018-12-26T08:08:45.794Z,949.82
2018-12-26T08:09:46.316Z,949.87
2018-12-26T08:10:47.447Z,949.82
2018-12-26T08:11:48.591Z,949.8
2018-12-26T08:12:49.004Z,949.76
2018-12-26T08:13:49.694Z,949.71
2018-12-26T08:14:50.939Z,949.79
2018-12-26T08:15:51.353Z,949.82
2018-12-26T08:16:53.923Z,949.81
2018-12-26T08:17:54.336Z,949.84
2018-12-26T08:18:55.021Z,949.9
2018-12-26T08:19:55.716Z,949.9
2018-12-26T08:20:56.221Z,949.94
2018-12-26T08:21:56.438Z,949.85
2018-12-26T08:22:57.572Z,949.82
2018-12-26T08:23:58.819Z,949.79
2018-12-26T08:24:59.510Z,949.87
2018-12-26T08:26:00.089Z,949.86
2018-12-26T08:27:00.782Z,949.86
2018-12-26T08:28:01.479Z,949.83
2018-12-26T08:29:02.526Z,949.91
2018-12-26T08:30:03.235Z,949.81
2018-12-26T08:31:03.956Z,949.83
2018-12-26T08:32:04.798Z,949.87
2018-12-26T08:33:05.495Z,949.83
2018-12-26T08:34:06.631Z,949.88
2018-12-26T08:35:07.770Z,949.86
2018-12-26T08:36:08.186Z,949.85
2018-12-26T08:37:08.429Z,949.85
2018-12-26T08:38:08.840Z,949.82
2018-12-26T08:39:09.252Z,949.88
2018-12-26T08:40:10.225Z,949.82
2018-12-26T08:41:10.915Z,949.83
2018-12-26T08:42:12.060Z,949.86
2018-12-26T08:43:13.029Z,949.89
2018-12-26T08:44:14.002Z,949.85
2018-12-26T08:45:14.414Z,949.89
2018-12-26T08:46:14.826Z,949.88
2018-12-26T08:47:15.799Z,949.87
2018-12-26T08:48:16.296Z,949.86
2018-12-26T08:49:17.261Z,949.83
2018-12-26T08:50:17.958Z,949.88
2018-12-26T08:51:18.925Z,949.88
2018-12-26T08:52:19.502Z,949.89
2018-12-26T08:53:20.290Z,949.96
2018-12-26T08:54:21.421Z,949.97
2018-12-26T08:55:22.110Z,949.94
2018-12-26T08:56:22.525Z,950
2018-12-26T08:57:23.494Z,949.96
2018-12-26T08:58:24.003Z,949.95
2018-12-26T08:58:35.944Z,949.97
2018-12-26T08:59:36.513Z,950
2018-12-26T09:00:37.628Z,950.05
2018-12-26T09:01:37.791Z,949.98
2018-12-26T09:02:38.583Z,949.98
2018-12-26T09:03:38.992Z,949.99
2018-12-26T09:04:40.125Z,949.98
2018-12-26T09:05:41.258Z,949.99
2018-12-26T09:06:42.393Z,949.98
2018-12-26T09:07:42.802Z,950.01
2018-12-26T09:08:43.936Z,949.96
2018-12-26T09:09:44.165Z,949.98
2018-12-26T09:10:44.863Z,949.98
2018-12-26T09:11:45.554Z,950.04
2018-12-26T09:12:46.246Z,950.04
2018-12-26T09:13:47.218Z,950
2018-12-26T09:14:48.357Z,950.06
2018-12-26T09:15:49.494Z,950.08
2018-12-26T09:16:50.830Z,950.11
2018-12-26T09:17:51.611Z,950.08
2018-12-26T09:18:52.025Z,950.1
2018-12-26T09:19:52.950Z,950.13
2018-12-26T09:20:54.091Z,950.13
2018-12-26T09:21:54.902Z,950.09
2018-12-26T09:22:56.036Z,950.11
2018-12-26T09:23:56.728Z,950.1
2018-12-26T09:24:57.863Z,950.11
2018-12-26T09:25:58.552Z,950.08
2018-12-26T09:26:59.520Z,950.14
2018-12-26T09:28:00.047Z,950.04
2018-12-26T09:29:01.586Z,950.08
2018-12-26T09:29:14.419Z,950.05
2018-12-26T09:30:15.103Z,950.07
2018-12-26T09:31:15.515Z,950.02
2018-12-26T09:32:15.925Z,950.03
2018-12-26T09:33:17.058Z,950.02
2018-12-26T09:34:17.647Z,950.02
2018-12-26T09:35:20.879Z,950.07
2018-12-26T09:36:19.786Z,950.03
2018-12-26T09:37:20.326Z,950.1
2018-12-26T09:38:20.744Z,950.12
2018-12-26T09:39:21.451Z,950.08
2018-12-26T09:40:21.997Z,950.2
2018-12-26T09:41:22.693Z,950.21
2018-12-26T09:42:23.942Z,950.22
2018-12-26T09:43:25.652Z,950.24
2018-12-26T09:43:37.640Z,950.18
2018-12-26T09:43:51.820Z,950.26
2018-12-26T09:44:55.191Z,950.19
2018-12-26T09:45:55.886Z,950.2
2018-12-26T09:46:56.681Z,950.21
2018-12-26T09:47:57.668Z,950.3
2018-12-26T09:48:58.640Z,950.26
2018-12-26T09:49:59.334Z,950.19
2018-12-26T09:50:59.857Z,950.22
2018-12-26T09:52:00.547Z,950.21
2018-12-26T09:53:00.961Z,950.15
2018-12-26T09:54:02.098Z,950.11
2018-12-26T09:55:04.616Z,950.14
2018-12-26T09:56:05.294Z,950.1
2018-12-26T09:57:05.710Z,950.15
2018-12-26T09:58:06.681Z,950.13
2018-12-26T09:59:07.372Z,950.11
2018-12-26T10:00:08.066Z,950.18
2018-12-26T10:01:08.482Z,950.13
2018-12-26T10:02:09.190Z,950.08
2018-12-26T10:03:10.328Z,950.08
2018-12-26T10:04:11.323Z,950.07
2018-12-26T10:05:11.869Z,950.1
2018-12-26T10:06:12.289Z,950.13
2018-12-26T10:07:12.984Z,950.05
2018-12-26T10:08:13.956Z,950.11
2018-12-26T10:09:16.355Z,950.1
2018-12-26T10:09:28.479Z,950.11
2018-12-26T10:10:28.953Z,950.14
2018-12-26T10:11:29.936Z,950.17
2018-12-26T10:12:31.201Z,950.2
2018-12-26T10:13:31.619Z,950.18
2018-12-26T10:14:32.147Z,950.2
2018-12-26T10:15:32.657Z,950.2
2018-12-26T10:16:33.631Z,950.19
2018-12-26T10:17:35.049Z,950.24
2018-12-26T10:18:35.565Z,950.23
2018-12-26T10:19:36.542Z,950.24
2018-12-26T10:20:37.612Z,950.19
2018-12-26T10:21:38.762Z,950.16
2018-12-26T10:22:39.905Z,950.15
2018-12-26T10:23:41.133Z,950.15
2018-12-26T10:24:41.663Z,950.1
2018-12-26T10:25:42.640Z,950.14
2018-12-26T10:26:43.788Z,950.13
2018-12-26T10:27:44.790Z,950.12
2018-12-26T10:28:45.933Z,950.11
2018-12-26T10:29:48.558Z,950.07
2018-12-26T10:29:59.690Z,950.03
2018-12-26T10:30:12.040Z,950.07
2018-12-26T10:30:24.221Z,950.1
2018-12-26T10:30:36.127Z,950.06
2018-12-26T10:30:48.275Z,950.06
2018-12-26T10:31:48.708Z,950.07
2018-12-26T10:32:49.855Z,950.12
2018-12-26T10:33:50.556Z,950.08
2018-12-26T10:34:51.251Z,950.04
2018-12-26T10:35:51.670Z,950.05
2018-12-26T10:36:52.371Z,949.99
2018-12-26T10:37:52.801Z,949.99
2018-12-26T10:38:53.244Z,950.02
2018-12-26T10:39:53.458Z,950.02
2018-12-26T10:40:53.893Z,949.98
2018-12-26T10:41:55.275Z,949.99
2018-12-26T10:42:55.984Z,949.94
2018-12-26T10:43:56.681Z,949.96
2018-12-26T10:44:57.100Z,949.99
2018-12-26T10:45:57.602Z,949.97
2018-12-26T10:46:58.031Z,949.97
2018-12-26T10:47:58.458Z,949.96
2018-12-26T10:48:59.162Z,950
2018-12-26T10:50:00.267Z,949.92
2018-12-26T10:51:00.989Z,949.9
2018-12-26T10:52:01.853Z,949.87
2018-12-26T10:53:02.554Z,949.83
2018-12-26T10:54:02.980Z,949.82
2018-12-26T10:55:03.403Z,949.76
2018-12-26T10:56:04.211Z,949.76
2018-12-26T10:57:05.359Z,949.8
2018-12-26T10:58:06.543Z,949.78
2018-12-26T10:59:10.672Z,949.77
2018-12-26T11:00:11.097Z,949.81
2018-12-26T11:01:12.005Z,949.8
2018-12-26T11:02:12.558Z,949.79
2018-12-26T11:03:13.261Z,949.73
2018-12-26T11:04:13.685Z,949.68
2018-12-26T11:05:14.664Z,949.68
2018-12-26T11:06:15.814Z,949.65
2018-12-26T11:07:17.070Z,949.65
2018-12-26T11:08:17.331Z,949.6
2018-12-26T11:09:18.476Z,949.56
2018-12-26T11:10:18.896Z,949.55
2018-12-26T11:11:19.331Z,949.51
2018-12-26T11:12:19.559Z,949.52
2018-12-26T11:13:20.262Z,949.44
2018-12-26T11:14:21.414Z,949.48
2018-12-26T11:15:21.839Z,949.37
2018-12-26T11:16:22.263Z,949.39
2018-12-26T11:17:22.711Z,949.39
2018-12-26T11:18:23.852Z,949.38
2018-12-26T11:19:24.286Z,949.4
2018-12-26T11:20:25.263Z,949.37
2018-12-26T11:21:26.247Z,949.35
2018-12-26T11:22:28.260Z,949.32
2018-12-26T11:22:39.716Z,949.32
2018-12-26T11:22:51.933Z,949.31
2018-12-26T11:23:04.937Z,949.28
2018-12-26T11:23:16.489Z,949.28
2018-12-26T11:24:17.056Z,949.27
2018-12-26T11:25:17.809Z,949.27
2018-12-26T11:26:18.505Z,949.21
2018-12-26T11:27:18.930Z,949.21
2018-12-26T11:28:19.906Z,949.17
2018-12-26T11:29:20.325Z,949.18
2018-12-26T11:30:22.253Z,949.23
2018-12-26T11:30:34.485Z,949.23
2018-12-26T11:30:47.288Z,949.21
2018-12-26T11:31:46.803Z,949.18
2018-12-26T11:32:47.990Z,949.17
2018-12-26T11:33:48.822Z,949.17
2018-12-26T11:34:49.242Z,949.16
2018-12-26T11:35:49.663Z,949.09
2018-12-26T11:36:50.082Z,949.11
2018-12-26T11:37:51.060Z,949.11
2018-12-26T11:38:51.318Z,949.1
2018-12-26T11:39:52.460Z,949.12
2018-12-26T11:40:53.162Z,949.14
2018-12-26T11:41:53.724Z,949.08
2018-12-26T11:42:55.095Z,949.06
2018-12-26T11:43:55.350Z,949.03
2018-12-26T11:44:56.053Z,949.1
2018-12-26T11:45:57.026Z,949.11
2018-12-26T11:46:57.565Z,949.11
2018-12-26T11:47:58.709Z,949.11
2018-12-26T11:48:59.407Z,949.1
2018-12-26T11:50:00.829Z,949.03
2018-12-26T11:51:02.096Z,949.06
2018-12-26T11:52:02.970Z,949.03
2018-12-26T11:53:04.115Z,949.06
2018-12-26T11:54:05.093Z,949.08
2018-12-26T11:55:05.524Z,949.08
2018-12-26T11:56:06.071Z,949.07
2018-12-26T11:57:07.494Z,949.02
2018-12-26T11:58:07.916Z,949.04
2018-12-26T11:59:08.169Z,949.07
2018-12-26T12:00:10.870Z,949.13
2018-12-26T12:00:22.936Z,949.11
2018-12-26T12:00:35.408Z,949.11
2018-12-26T12:00:47.694Z,949.08
2018-12-26T12:01:00.350Z,949.1
2018-12-26T12:01:12.972Z,949.06
2018-12-26T12:02:21.061Z,949.11
2018-12-26T12:02:25.402Z,949.1
2018-12-26T12:03:26.227Z,949.12
2018-12-26T12:04:27.305Z,949.09
2018-12-26T12:05:28.011Z,949.12
2018-12-26T12:06:28.703Z,949.14
2018-12-26T12:07:29.699Z,949.16
2018-12-26T12:08:30.843Z,949.16
2018-12-26T12:09:31.985Z,949.2
2018-12-26T12:10:33.406Z,949.17
2018-12-26T12:11:33.843Z,949.17
2018-12-26T12:12:34.543Z,949.21
2018-12-26T12:13:35.419Z,949.21
2018-12-26T12:14:35.895Z,949.19
2018-12-26T12:15:36.314Z,949.24
2018-12-26T12:16:37.111Z,949.21
2018-12-26T12:17:37.812Z,949.25
2018-12-26T12:18:38.601Z,949.24
2018-12-26T12:19:39.680Z,949.26
2018-12-26T12:20:40.661Z,949.25
2018-12-26T12:21:41.082Z,949.28
2018-12-26T12:22:42.167Z,949.25
2018-12-26T12:23:43.024Z,949.28